Pagrindinis puslapis
METAR-TAF:

METAR-TAF

Oro uostai :

Antananaryvas, Madagaskaras

platuma: 18-48S, ilguma: 047-29E, Aukštis: 1279 m

Dabartinis oras

Ataskaita buvo paskelbta 24 minutes, ne 05:00 UTC
Vėjas 8 kt iš Pietų/Pietryčių
Temperatūra 18°C
Drėgmė 73%
Slėgis 1023 hPa
Matomumas 10 km arba daugiau
Mažai debesys ne aukštis 1700 ft
Su prošvaistėmis ne aukštis 2000 ft

METAR: FMMI 180500Z 16008KT 9999 FEW017 BKN020 18/13 Q1023 NOSIG

Laikas: 08:24 (05:24 UTC)

Prognozė

Ataskaita buvo paskelbta 6 valandos ir 24 minutes, ne 23:00 UTC
Prognozė galioja nuo 18 metu 00 UTC su 19 metu 06 UTC
Vėjas 10 kt iš Rytų/Pietryčių
Matomumas 10 km arba daugiau
Mažai debesys ne aukštis 1700 ft
Su prošvaistėmis ne aukštis 2000 ft
Tapsmas
nuo 18 metu 20 UTC su 18 metu 23 UTC
Vėjas kt iš Šiaurės
Tikimybė 30%
nuo 19 metu 02 UTC su 19 metu 06 UTC
Matomumas: 3000 m
Su prošvaistėmis ne aukštis 400 ft
rūkana

TAF: FMMI 172300Z 1800/1906 12010KT 9999 FEW017 BKN020 BECMG 1820/1823 00000KT PROB30 1902/1906 3000 BR BKN004

Orai ataskaitas ir orų prognozės (METAR, TAF).

turimą stotys yra geltonos ir raudonos taškus žemėlapyje.

Perkelti pele per norėdami pamatyti stoties vardą.

Tada spustelėkite, norėdami matyti oro stebėjimo ir prognozės.

Norėdami pakeisti žemėlapį: spustelėkite ant žalios mygtukų su juodo kryžiaus žemyn,; žalią mygtuką su brūkšneliu, jei norite nutolinti; arba žalių rodyklių gretimoms žemėlapius.


METAR-TAF: